createdAt,value
2022-11-18T00:03:28.231Z,13.35
2022-11-18T00:08:29.159Z,13.38
2022-11-18T00:13:47.365Z,13.20
2022-11-18T00:18:49.523Z,13.90
2022-11-18T00:23:50.320Z,14.60
2022-11-18T00:28:51.103Z,13.70
2022-11-18T00:33:53.252Z,14.38
2022-11-18T00:38:54.605Z,15.40
2022-11-18T00:43:55.364Z,14.50
2022-11-18T00:48:57.481Z,15.02
2022-11-18T00:53:58.254Z,14.38
2022-11-18T00:58:59.240Z,14.75
2022-11-18T01:04:01.684Z,14.68
2022-11-18T01:09:02.466Z,14.80
2022-11-18T01:14:03.292Z,15.73
2022-11-18T01:19:05.443Z,15.02
2022-11-18T01:24:07.221Z,15.95
2022-11-18T01:29:08.694Z,16.63
2022-11-18T01:34:10.847Z,16.95
2022-11-18T01:39:11.688Z,16.23
2022-11-18T01:44:45.908Z,16.88
2022-11-18T01:49:48.136Z,16.15
2022-11-18T01:54:55.044Z,16.15
2022-11-18T01:59:59.553Z,16.17
2022-11-18T02:05:03.594Z,17.08
2022-11-18T02:10:07.225Z,15.90
2022-11-18T02:15:09.308Z,16.35
2022-11-18T02:20:25.127Z,16.42
2022-11-18T02:25:34.734Z,16.60
2022-11-18T02:30:44.230Z,16.30
2022-11-18T02:35:50.350Z,16.48
2022-11-18T02:40:54.682Z,16.80
2022-11-18T02:46:01.783Z,17.05
2022-11-18T02:51:06.863Z,16.33
2022-11-18T02:56:09.742Z,15.60
2022-11-18T03:01:21.279Z,15.68
2022-11-18T03:06:31.330Z,16.48
2022-11-18T03:11:35.050Z,15.82
2022-11-18T03:16:42.156Z,15.90
2022-11-18T03:21:48.892Z,15.95
2022-11-18T03:26:55.183Z,15.00
2022-11-18T03:32:03.093Z,14.63
2022-11-18T03:37:10.662Z,15.45
2022-11-18T03:42:16.690Z,14.95
2022-11-18T03:47:24.030Z,14.30
2022-11-18T03:52:28.945Z,14.70
2022-11-18T03:57:40.310Z,14.13
2022-11-18T04:02:43.052Z,14.38
2022-11-18T04:07:51.919Z,15.68
2022-11-18T04:13:04.794Z,15.15
2022-11-18T04:18:09.264Z,17.27
2022-11-18T04:23:10.088Z,17.80
2022-11-18T04:28:10.892Z,17.83
2022-11-18T04:33:13.022Z,19.83
2022-11-18T04:38:19.126Z,19.25
2022-11-18T04:43:22.466Z,18.73
2022-11-18T04:48:24.591Z,19.83
2022-11-18T04:53:25.453Z,19.58
2022-11-18T04:58:26.262Z,19.90
2022-11-18T05:03:28.368Z,19.98
2022-11-18T05:08:29.110Z,19.17
2022-11-18T05:13:29.901Z,19.52
2022-11-18T05:18:31.995Z,19.08
2022-11-18T05:23:32.779Z,20.20
2022-11-18T05:28:33.693Z,19.52
2022-11-18T05:33:35.822Z,17.60
2022-11-18T05:38:36.985Z,16.88
2022-11-18T05:43:38.537Z,15.57
2022-11-18T05:48:40.792Z,17.02
2022-11-18T05:53:41.560Z,16.92
2022-11-18T05:58:42.391Z,17.73
2022-11-18T06:03:44.819Z,16.05
2022-11-18T06:08:51.041Z,15.93
2022-11-18T06:13:58.334Z,16.92
2022-11-18T06:19:02.427Z,15.90
2022-11-18T06:24:03.527Z,15.30
2022-11-18T06:29:05.252Z,16.50
2022-11-18T06:34:07.383Z,16.05
2022-11-18T06:39:09.008Z,15.35
2022-11-18T06:44:12.121Z,14.32
2022-11-18T06:49:14.265Z,15.05
2022-11-18T06:54:15.465Z,14.95
2022-11-18T06:59:22.159Z,16.42
2022-11-18T07:04:24.334Z,17.48
2022-11-18T07:09:25.110Z,16.92
2022-11-18T07:14:25.882Z,14.15
2022-11-18T07:19:31.429Z,18.65
2022-11-18T07:24:36.478Z,17.42
2022-11-18T07:29:37.344Z,14.57
2022-11-18T07:34:39.474Z,15.00
2022-11-18T07:39:40.251Z,14.25
2022-11-18T07:44:41.171Z,13.00
2022-11-18T07:49:43.332Z,13.25
2022-11-18T07:54:44.099Z,14.18
2022-11-18T07:59:44.891Z,12.23
2022-11-18T08:04:47.025Z,10.55
2022-11-18T08:09:47.849Z,11.77
2022-11-18T08:14:48.650Z,11.50
2022-11-18T08:19:50.813Z,12.75
2022-11-18T08:24:51.597Z,12.20
2022-11-18T08:29:52.378Z,12.98
2022-11-18T08:34:54.623Z,13.90
2022-11-18T08:39:55.414Z,13.88
2022-11-18T08:44:56.237Z,14.18
2022-11-18T08:49:58.370Z,15.20
2022-11-18T08:54:59.188Z,15.45
2022-11-18T09:00:00.091Z,17.38
2022-11-18T09:05:02.313Z,16.60
2022-11-18T09:10:03.179Z,17.17
2022-11-18T09:15:13.505Z,18.45
2022-11-18T09:20:17.358Z,18.65
2022-11-18T09:25:18.267Z,18.15
2022-11-18T09:30:19.185Z,17.25
2022-11-18T09:35:21.320Z,17.75
2022-11-18T09:40:22.267Z,19.08
2022-11-18T09:45:26.359Z,21.23
2022-11-18T09:55:50.665Z,21.23
2022-11-18T10:00:51.445Z,22.23
2022-11-18T10:05:59.652Z,22.05
2022-11-18T10:11:07.793Z,21.77
2022-11-18T10:16:21.746Z,21.45
2022-11-18T10:21:34.868Z,22.02
2022-11-18T10:26:36.965Z,21.38
2022-11-18T10:31:39.183Z,20.15
2022-11-18T10:36:41.826Z,19.02
2022-11-18T10:41:48.535Z,19.17
2022-11-18T10:46:49.499Z,17.88
2022-11-18T10:52:11.181Z,16.95
2022-11-18T10:57:19.474Z,16.40
2022-11-18T11:02:22.097Z,16.10
2022-11-18T11:07:31.983Z,15.25
2022-11-18T11:12:35.400Z,14.32
2022-11-18T11:17:42.964Z,15.90
2022-11-18T11:22:45.693Z,17.50
2022-11-18T11:33:27.204Z,16.50
2022-11-18T11:38:38.726Z,16.73
2022-11-18T11:43:52.267Z,18.33
2022-11-18T11:49:03.086Z,18.88
2022-11-18T11:54:35.262Z,20.85
2022-11-18T11:59:45.985Z,19.70
2022-11-18T12:04:52.011Z,22.02
2022-11-18T12:10:20.685Z,23.58
2022-11-18T12:15:33.114Z,24.80
2022-11-18T12:20:52.522Z,22.67
2022-11-18T12:26:06.919Z,23.25
2022-11-18T12:31:36.123Z,24.10
2022-11-18T12:36:39.440Z,22.80
2022-11-18T12:42:15.972Z,22.40
2022-11-18T12:47:17.758Z,23.23
2022-11-18T12:52:50.265Z,22.60
2022-11-18T12:57:53.216Z,24.90
2022-11-18T13:02:54.737Z,27.02
2022-11-18T13:08:15.058Z,27.13
2022-11-18T13:13:27.611Z,23.17
2022-11-18T13:18:28.425Z,25.17
2022-11-18T13:23:48.813Z,26.20
2022-11-18T13:29:09.127Z,23.45
2022-11-18T13:34:19.038Z,22.92
2022-11-18T13:39:24.092Z,22.60
2022-11-18T13:44:28.131Z,23.48
2022-11-18T13:49:48.906Z,24.10
2022-11-18T13:54:53.284Z,22.25
2022-11-18T13:59:56.003Z,24.80
2022-11-18T14:05:00.054Z,26.00
2022-11-18T14:10:03.456Z,25.55
2022-11-18T14:15:17.058Z,24.88
2022-11-18T14:20:19.222Z,24.75
2022-11-18T14:25:23.954Z,24.30
2022-11-18T14:30:37.384Z,25.58
2022-11-18T14:35:38.524Z,24.70
2022-11-18T14:40:39.334Z,24.20
2022-11-18T14:45:42.354Z,24.75
2022-11-18T14:50:43.251Z,24.92
2022-11-18T14:55:51.960Z,25.00
2022-11-18T15:00:54.831Z,26.65
2022-11-18T15:05:55.767Z,26.73
2022-11-18T15:10:56.567Z,26.23
2022-11-18T15:15:58.791Z,25.77
2022-11-18T15:20:59.534Z,25.20
2022-11-18T15:26:00.297Z,25.05
2022-11-18T15:31:02.451Z,26.05
2022-11-18T15:36:03.487Z,26.10
2022-11-18T15:41:04.281Z,25.83
2022-11-18T15:46:06.643Z,25.92
2022-11-18T15:51:11.876Z,27.45
2022-11-18T15:56:17.877Z,26.02
2022-11-18T16:01:20.372Z,26.55
2022-11-18T16:06:21.252Z,26.80
2022-11-18T16:11:39.948Z,27.10
2022-11-18T16:16:43.581Z,27.02
2022-11-18T16:21:47.004Z,27.13
2022-11-18T16:26:48.555Z,26.45
2022-11-18T16:31:52.401Z,26.85
2022-11-18T16:36:54.730Z,27.70
2022-11-18T16:42:00.924Z,27.05
2022-11-18T16:47:14.320Z,26.23
2022-11-18T16:52:15.305Z,26.35
2022-11-18T16:57:16.400Z,22.67
2022-11-18T17:02:20.332Z,24.75
2022-11-18T17:07:21.990Z,20.77
2022-11-18T17:12:22.842Z,21.75
2022-11-18T17:17:25.972Z,20.80
2022-11-18T17:22:26.768Z,19.70
2022-11-18T17:27:27.593Z,17.90
2022-11-18T17:32:31.003Z,16.50
2022-11-18T17:37:31.793Z,20.60
2022-11-18T17:42:32.935Z,17.38
2022-11-18T17:47:35.099Z,16.33
2022-11-18T17:52:35.947Z,15.10
2022-11-18T17:57:36.758Z,14.88
2022-11-18T18:02:39.445Z,14.52
2022-11-18T18:07:40.278Z,14.95
2022-11-18T18:12:58.712Z,13.80
2022-11-18T18:18:01.279Z,11.43
2022-11-18T18:23:02.156Z,11.10
2022-11-18T18:28:03.442Z,11.15
2022-11-18T18:33:05.612Z,11.45
2022-11-18T18:38:06.565Z,9.52
2022-11-18T18:43:07.331Z,9.45
2022-11-18T18:48:09.549Z,9.60
2022-11-18T18:53:10.361Z,9.73
2022-11-18T18:58:11.188Z,8.05
2022-11-18T19:03:13.483Z,8.18
2022-11-18T19:08:14.318Z,7.97
2022-11-18T19:13:15.188Z,8.40
2022-11-18T19:18:17.401Z,7.45
2022-11-18T19:23:18.341Z,6.78
2022-11-18T19:28:19.148Z,6.80
2022-11-18T19:33:21.308Z,7.80
2022-11-18T19:38:22.180Z,6.47
2022-11-18T19:43:22.935Z,6.75
2022-11-18T19:48:25.549Z,6.68
2022-11-18T19:53:35.428Z,6.13
2022-11-18T19:58:38.380Z,6.68
2022-11-18T20:03:40.527Z,7.20
2022-11-18T20:08:41.821Z,6.45
2022-11-18T20:13:43.902Z,7.20
2022-11-18T20:18:47.601Z,6.57
2022-11-18T20:23:49.538Z,6.88
2022-11-18T20:28:56.022Z,6.80
2022-11-18T20:33:59.755Z,6.28
2022-11-18T20:39:02.300Z,6.70
2022-11-18T20:44:03.246Z,6.22
2022-11-18T20:49:05.397Z,7.13
2022-11-18T20:54:09.191Z,6.32
2022-11-18T20:59:09.976Z,6.57
2022-11-18T21:04:13.058Z,7.80
2022-11-18T21:09:14.351Z,7.45
2022-11-18T21:14:25.308Z,6.85
2022-11-18T21:19:28.453Z,7.57
2022-11-18T21:24:30.761Z,7.25
2022-11-18T21:29:33.273Z,8.13
2022-11-18T21:34:36.404Z,7.93
2022-11-18T21:39:37.877Z,7.85
2022-11-18T21:44:38.674Z,8.65
2022-11-18T21:49:40.796Z,9.00
2022-11-18T21:54:41.566Z,7.55
2022-11-18T21:59:42.350Z,8.68
2022-11-18T22:04:53.471Z,8.63
2022-11-18T22:09:55.275Z,8.73
2022-11-18T22:14:56.079Z,9.75
2022-11-18T22:19:58.259Z,8.68
2022-11-18T22:24:59.181Z,8.77
2022-11-18T22:29:59.978Z,8.27
2022-11-18T22:35:02.102Z,9.02
2022-11-18T22:40:02.977Z,9.15
2022-11-18T22:45:03.862Z,8.80
2022-11-18T22:50:06.629Z,8.77
2022-11-18T22:55:07.811Z,9.95
2022-11-18T23:00:10.549Z,9.90
2022-11-18T23:05:12.706Z,8.63
2022-11-18T23:10:13.890Z,8.98
2022-11-18T23:15:14.787Z,8.63
2022-11-18T23:20:17.531Z,9.15
2022-11-18T23:25:18.351Z,8.60
2022-11-18T23:30:19.363Z,8.45
2022-11-18T23:35:21.581Z,7.78
2022-11-18T23:40:23.440Z,7.32
2022-11-18T23:45:24.210Z,9.20
2022-11-18T23:50:26.330Z,8.20
2022-11-18T23:55:27.084Z,8.80
